Latest Weather Observations for Alva Beach

IDQ60801

Issued at 2:02 pm EST Saturday 23 May 2015 (issued every 30 minutes, with the page automatically refreshed every 10 minutes)

About weather observations | Map of weather stations | Latest weather observations for QLD | Other Formats
Station Details ID: 033295 Name: ALVA BEACH Lat: -19.46 Lon: 147.48 Height: 7.5 m
Data from the previous 72 hours. | See also: Recent months at Alva Beach
Date/Time
EST
Temp
°C
App
Temp
°C
Dew
Point
Rel
Hum
%
Delta-T
°C
Wind Press
QNH
hPa
Press
MSL
hPa
Rain
since 9 am
mm
Dir
 
Spd
km/h
Gust
km/h
Spd
kts
Gust
kts
23/02:00pm 22.7 19.2 7.3 37 8.0 E 15 22 8 12 1018.5 1018.5 0.0
23/01:30pm 22.6 19.2 6.0 34 8.4 ESE 13 20 7 11 1018.8 1018.8 0.0
23/01:00pm 22.7 19.0 4.2 30 9.0 ESE 13 20 7 11 1019.2 1019.2 0.0
23/12:30pm 22.4 18.4 4.9 32 8.7 E 15 22 8 12 1019.6 1019.6 0.0
23/12:00pm 21.2 17.9 6.3 38 7.5 E 13 22 7 12 1020.1 1020.1 0.0
23/11:30am 22.2 18.9 6.4 36 8.0 ESE 13 22 7 12 1020.4 1020.4 0.0
23/11:00am 22.4 19.6 7.0 37 7.9 ESE 11 20 6 11 1020.8 1020.8 0.0
23/10:30am 20.9 17.7 3.2 31 8.4 S 9 19 5 10 1020.9 1020.9 0.0
23/10:00am 20.7 17.0 4.3 34 7.9 S 13 22 7 12 1021.0 1021.0 0.0
23/09:30am 19.6 15.5 4.1 36 7.4 SSW 15 26 8 14 1021.0 1021.0 0.0
23/09:00am 18.1 13.6 4.3 40 6.5 S 17 28 9 15 1021.0 1021.0 0.0
23/08:30am 16.9 12.3 3.9 42 6.1 SSW 17 26 9 14 1020.6 1020.6 0.0
23/08:00am 15.6 11.3 3.4 44 5.5 SSW 15 24 8 13 1020.4 1020.4 0.0
23/07:30am 13.4 9.5 3.5 51 4.4 SSW 13 22 7 12 1020.2 1020.2 0.0
23/07:00am 12.9 9.4 3.6 53 4.2 SSW 11 15 6 8 1019.7 1019.7 0.0
23/06:30am 12.7 9.3 3.9 55 4.0 SW 11 15 6 8 1019.4 1019.4 0.0
23/06:00am 13.3 9.8 3.7 52 4.3 SSW 11 13 6 7 1019.0 1019.0 0.0
23/05:30am 14.1 10.6 3.6 49 4.8 SSW 11 15 6 8 1018.5 1018.5 0.0
23/05:00am 13.7 10.7 4.0 52 4.4 SW 9 11 5 6 1018.3 1018.3 0.0
23/04:30am 14.0 10.9 3.5 49 4.7 SW 9 13 5 7 1018.0 1018.0 0.0
23/04:00am 14.7 11.5 2.9 45 5.3 SSW 9 13 5 7 1017.9 1017.9 0.0
23/03:30am 15.6 12.2 2.1 40 6.0 SSW 9 13 5 7 1017.9 1017.9 0.0
23/03:00am 16.0 12.1 1.3 37 6.4 SSW 11 15 6 8 1017.8 1017.8 0.0
23/02:30am 15.3 12.1 2.8 43 5.6 SW 9 13 5 7 1017.9 1017.9 0.0
23/02:00am 15.5 12.3 3.0 43 5.6 SW 9 17 5 9 1018.0 1018.0 0.0
23/01:30am 15.2 12.2 4.3 48 5.1 SSW 9 13 5 7 1018.2 1018.2 0.0
23/01:00am 15.6 12.6 4.3 47 5.2 SSW 9 11 5 6 1018.3 1018.3 0.0
23/12:30am 16.1 13.1 4.2 45 5.5 SSW 9 13 5 7 1018.4 1018.4 0.0
23/12:00am 16.6 13.7 4.9 46 5.5 SSW 9 13 5 7 1018.5 1018.5 0.0
 
Date/Time
EST
Temp
°C
App
Temp
°C
Dew
Point
Rel
Hum
%
Delta-T
°C
Wind Press
QNH
hPa
Press
MSL
hPa
Rain
since 9 am
mm
Dir
 
Spd
km/h
Gust
km/h
Spd
kts
Gust
kts
22/11:30pm 17.1 14.4 5.4 46 5.6 SSW 9 15 5 8 1018.5 1018.5 0.0
22/11:00pm 17.7 14.9 5.3 44 6.0 SSW 9 13 5 7 1018.5 1018.5 0.0
22/10:30pm 18.3 15.6 5.8 44 6.1 SSW 9 13 5 7 1018.7 1018.7 0.0
22/10:00pm 18.9 16.5 7.0 46 6.0 S 9 13 5 7 1018.7 1018.7 0.0
22/09:30pm 19.7 18.2 8.4 48 5.9 S 6 11 3 6 1018.7 1018.7 0.0
22/09:00pm 20.1 18.9 9.4 50 5.7 S 6 9 3 5 1018.6 1018.6 0.0
22/08:30pm 20.8 19.7 10.0 50 5.8 SSE 6 9 3 5 1018.4 1018.4 0.0
22/08:00pm 21.6 20.2 11.0 51 5.8 SSE 9 19 5 10 1018.1 1018.1 0.0
22/07:30pm 21.0 19.7 11.3 54 5.4 SSW 9 11 5 6 1017.7 1017.7 0.0
22/07:00pm 21.7 20.8 11.4 52 5.7 SSW 7 11 4 6 1017.3 1017.3 0.0
22/06:30pm 22.6 21.4 11.7 50 6.1 SSW 9 13 5 7 1016.8 1016.8 0.0
22/06:00pm 23.5 22.6 11.5 47 6.7 SW 7 11 4 6 1016.3 1016.3 0.0
22/05:30pm 25.2 24.1 10.6 40 8.1 SSW 7 13 4 7 1016.0 1016.0 0.0
22/05:00pm 26.5 24.0 9.8 35 9.2 SSW 13 22 7 12 1015.5 1015.5 0.0
22/04:30pm 27.3 24.8 9.6 33 9.8 SSW 13 22 7 12 1015.4 1015.4 0.0
22/04:00pm 28.3 25.5 8.6 29 10.8 SSW 13 22 7 12 1015.3 1015.3 0.0
22/03:30pm 28.8 26.1 9.0 29 10.9 SSW 13 22 7 12 1015.2 1015.2 0.0
22/03:00pm 29.4 27.1 9.0 28 11.3 SSW 11 22 6 12 1015.2 1015.2 0.0
22/02:30pm 28.8 26.1 9.0 29 10.9 S 13 20 7 11 1015.3 1015.3 0.0
22/02:00pm 28.9 25.9 9.1 29 11.0 SSW 15 28 8 15 1015.7 1015.7 0.0
22/01:30pm 28.6 25.0 8.3 28 11.1 SSW 17 24 9 13 1015.9 1015.9 0.0
22/01:00pm 28.4 24.7 8.1 28 11.0 SSW 17 28 9 15 1016.2 1016.2 0.0
22/12:30pm 27.7 24.2 8.6 30 10.4 SSW 17 30 9 16 1016.8 1016.8 0.0
22/12:00pm 27.2 23.7 8.6 31 10.1 SSW 17 30 9 16 1017.3 1017.3 0.0
22/11:30am 27.0 23.8 9.8 34 9.5 SSW 17 32 9 17 1017.6 1017.6 0.0
22/11:00am 26.3 22.9 9.2 34 9.3 SSW 17 26 9 14 1018.1 1018.1 0.0
22/10:30am 25.4 21.8 9.7 37 8.6 SSW 19 30 10 16 1018.5 1018.5 0.0
22/10:00am 24.4 20.0 8.8 37 8.4 SSW 22 37 12 20 1018.7 1018.7 0.0
22/09:30am 24.2 20.6 10.5 42 7.6 SSW 20 32 11 17 1018.8 1018.8 0.0
22/09:00am 23.5 20.7 11.5 47 6.7 SSW 17 32 9 17 1018.7 1018.7 0.0
22/08:30am 22.6 20.0 12.0 51 6.0 SW 17 26 9 14 1018.4 1018.4 0.0
22/08:00am 21.8 20.0 12.1 54 5.4 SSW 13 20 7 11 1018.2 1018.2 0.0
22/07:30am 21.0 18.9 12.4 58 4.8 SW 15 20 8 11 1017.9 1017.9 0.0
22/07:00am 20.1 18.4 12.6 62 4.2 SW 13 20 7 11 1017.5 1017.5 0.0
22/06:30am 19.6 18.2 13.5 68 3.5 SSW 13 22 7 12 1017.2 1017.2 0.0
22/06:00am 20.0 19.0 14.6 71 3.1 SSW 13 20 7 11 1016.9 1016.9 0.0
22/05:30am 20.4 20.8 17.2 82 2.0 SSW 11 20 6 11 1016.5 1016.5 0.0
22/05:00am 21.3 21.4 17.5 79 2.3 SSW 13 19 7 10 1016.1 1016.1 0.0
22/04:30am 21.4 23.9 20.2 93 0.8 SSW 7 13 4 7 1016.0 1016.0 0.0
22/04:00am 21.2 23.7 20.2 94 0.6 SSW 7 9 4 5 1016.0 1016.0 0.0
22/03:30am 21.3 23.8 20.3 94 0.6 SSW 7 11 4 6 1016.1 1016.1 0.0
22/03:00am 21.2 23.8 20.0 93 0.8 SW 6 7 3 4 1016.2 1016.2 0.0
22/02:30am 21.6 24.3 20.2 92 0.9 SW 6 9 3 5 1016.3 1016.3 0.0
22/02:00am 21.8 24.6 20.4 92 0.9 SSW 6 9 3 5 1016.5 1016.5 0.0
22/01:30am 22.1 24.8 20.6 91 1.0 SSW 7 11 4 6 1016.7 1016.7 0.0
22/01:00am 22.2 24.9 20.7 91 1.0 SSW 7 11 4 6 1017.0 1017.0 0.0
22/12:30am 22.7 25.6 19.1 80 2.3 NE 2 7 1 4 1016.7 1016.7 0.0
22/12:00am 24.4 26.6 20.5 79 2.5 NE 9 11 5 6 1016.6 1016.6 0.0
 
Date/Time
EST
Temp
°C
App
Temp
°C
Dew
Point
Rel
Hum
%
Delta-T
°C
Wind Press
QNH
hPa
Press
MSL
hPa
Rain
since 9 am
mm
Dir
 
Spd
km/h
Gust
km/h
Spd
kts
Gust
kts
21/11:30pm 24.4 26.3 20.5 79 2.5 ENE 11 13 6 7 1016.8 1016.8 0.0
21/11:00pm 24.5 26.4 20.6 79 2.5 ENE 11 15 6 8 1017.1 1017.1 0.0
21/10:30pm 24.6 26.9 20.7 79 2.6 NE 9 13 5 7 1017.2 1017.2 0.0
21/10:00pm 24.6 26.5 20.5 78 2.7 NE 11 15 6 8 1017.1 1017.1 0.0
21/09:30pm 24.5 26.4 20.6 79 2.5 NE 11 13 6 7 1017.1 1017.1 0.0
21/09:00pm 24.6 26.1 20.5 78 2.7 NE 13 17 7 9 1017.2 1017.2 0.0
21/08:30pm 24.6 26.5 20.5 78 2.7 NNE 11 13 6 7 1017.1 1017.1 0.0
21/08:00pm 24.6 26.1 20.5 78 2.7 NNE 13 13 7 7 1016.9 1016.9 0.0
21/07:30pm 24.7 26.2 20.6 78 2.7 NNE 13 15 7 8 1016.5 1016.5 0.0
21/07:00pm 24.6 26.0 20.3 77 2.8 NNE 13 15 7 8 1016.1 1016.1 0.0
21/06:30pm 24.6 25.8 19.9 75 3.0 NNE 13 17 7 9 1015.8 1015.8 0.0
21/06:00pm 24.9 26.2 20.2 75 3.1 NNE 13 15 7 8 1015.7 1015.7 0.0
21/05:30pm 25.0 26.0 20.3 75 3.1 NE 15 17 8 9 1015.4 1015.4 0.0
21/05:00pm 25.2 25.7 20.0 73 3.4 NE 17 22 9 12 1015.0 1015.0 0.0
21/04:30pm 25.7 25.6 19.6 69 3.9 NE 19 22 10 12 1014.9 1014.9 0.0
21/04:00pm 26.2 26.7 20.1 69 4.0 NE 17 20 9 11 1014.8 1014.8 0.0
21/03:30pm 26.7 27.7 20.3 68 4.2 NE 15 19 8 10 1014.7 1014.7 0.0
21/03:00pm 26.6 27.8 20.7 70 3.9 ENE 15 17 8 9 1014.9 1014.9 0.0
21/02:30pm 26.4 27.0 20.3 69 4.0 ENE 17 19 9 10 1015.2 1015.2 0.0
21/02:00pm 26.6 28.2 20.7 70 3.9 E 13 17 7 9 1015.5 1015.5 0.0
21/01:30pm 26.6 28.2 20.7 70 3.9 E 13 19 7 10 1015.8 1015.8 0.0
21/01:00pm 26.7 28.3 20.8 70 3.9 E 13 19 7 10 1016.2 1016.2 0.0
21/12:30pm 26.9 28.5 20.7 69 4.1 E 13 19 7 10 1016.8 1016.8 0.0
21/12:00pm 27.0 28.5 20.6 68 4.2 E 13 17 7 9 1017.3 1017.3 0.0
21/11:30am 26.7 28.1 20.3 68 4.2 E 13 17 7 9 1017.9 1017.9 0.0
21/11:00am 27.0 28.5 20.6 68 4.2 E 13 17 7 9 1018.2 1018.2 0.0
21/10:30am 26.7 27.9 19.8 66 4.5 ENE 13 17 7 9 1018.4 1018.4 0.0
21/10:00am 26.7 28.8 20.1 67 4.3 E 9 13 5 7 1018.9 1018.9 0.0
21/09:30am 26.6 27.9 20.2 68 4.2 ENE 13 15 7 8 1018.9 1018.9 0.0
21/09:00am 25.3 26.4 19.7 71 3.6 ENE 13 15 7 8 1018.8 1018.8 0.0
21/08:30am 25.2 26.3 19.6 71 3.6 E 13 17 7 9 1018.6 1018.6 0.0
21/08:00am 25.5 26.4 19.2 68 4.0 E 13 17 7 9 1018.2 1018.2 0.0
21/07:30am 24.2 26.4 20.5 80 2.4 ESE 9 13 5 7 1017.8 1017.8 0.0
21/07:00am 23.4 25.9 21.1 87 1.5 ESE 9 15 5 8 1017.5 1017.5 0.0
21/06:30am 23.0 25.0 20.7 87 1.5 ESE 11 22 6 12 1017.3 1017.3 0.0
21/06:00am 23.4 23.5 20.0 81 2.2 E 19 28 10 15 1017.1 1017.1 0.0
21/05:30am 23.6 24.2 20.3 82 2.1 E 17 22 9 12 1017.0 1017.0 0.0
21/05:00am 24.1 24.9 19.8 77 2.8 E 15 19 8 10 1016.8 1016.8 0.0
21/04:30am 24.0 23.9 19.9 78 2.6 ENE 20 24 11 13 1016.8 1016.8 0.0
21/04:00am 24.2 24.9 20.5 80 2.4 ENE 17 19 9 10 1016.7 1016.7 0.0
21/03:30am 24.1 25.4 20.8 82 2.2 ENE 15 19 8 10 1016.9 1016.9 0.0
21/03:00am 24.1 24.5 20.6 81 2.3 NE 19 22 10 12 1016.8 1016.8 0.0
21/02:30am 24.4 23.4 20.5 79 2.5 NE 26 30 14 16 1016.7 1016.7 0.0
21/02:00am 24.6 23.9 20.3 77 2.8 ENE 24 28 13 15 1016.8 1016.8 0.0
21/01:30am 24.5 24.5 21.0 81 2.3 ENE 22 28 12 15 1017.1 1017.1 0.0
21/01:00am 24.4 24.0 20.9 81 2.3 ENE 24 28 13 15 1017.3 1017.3 0.0
21/12:30am 24.7 24.4 20.4 77 2.8 ENE 22 28 12 15 1017.4 1017.4 0.0
21/12:00am 24.7 23.8 19.8 74 3.2 ENE 24 28 13 15 1017.5 1017.5 0.0
 
Date/Time
EST
Temp
°C
App
Temp
°C
Dew
Point
Rel
Hum
%
Delta-T
°C
Wind Press
QNH
hPa
Press
MSL
hPa
Rain
since 9 am
mm
Dir
 
Spd
km/h
Gust
km/h
Spd
kts
Gust
kts
20/11:30pm 24.5 24.6 20.4 78 2.7 ENE 20 28 11 15 1017.8 1017.8 0.0
20/11:00pm 24.4 24.3 20.7 80 2.4 ENE 22 30 12 16 1017.9 1017.9 0.0
20/10:30pm 24.5 24.9 20.6 79 2.5 E 19 24 10 13 1018.1 1018.1 0.0
20/10:00pm 24.5 24.9 21.0 81 2.3 E 20 26 11 14 1018.2 1018.2 0.0
20/09:30pm 24.6 24.9 20.7 79 2.6 E 20 28 11 15 1018.2 1018.2 0.0
20/09:00pm 24.6 24.9 20.3 77 2.8 E 19 24 10 13 1018.2 1018.2 0.0
20/08:30pm 24.6 25.4 20.7 79 2.6 E 17 24 9 13 1018.0 1018.0 0.0
20/08:00pm 24.8 24.9 20.3 76 2.9 E 20 28 11 15 1017.7 1017.7 0.0
20/07:30pm 24.8 25.1 20.3 76 2.9 E 19 26 10 14 1017.4 1017.4 0.0
20/07:00pm 24.7 25.5 20.6 78 2.7 E 17 26 9 14 1017.1 1017.1 0.0
20/06:30pm 24.7 25.4 20.4 77 2.8 E 17 24 9 13 1016.6 1016.6 0.0
20/06:00pm 24.7 25.4 20.4 77 2.8 E 17 26 9 14 1016.3 1016.3 0.0
20/05:30pm 24.8 25.2 20.7 78 2.7 E 19 24 10 13 1015.9 1015.9 0.0
20/05:00pm 25.2 25.8 20.2 74 3.2 E 17 22 9 12 1015.6 1015.6 0.0
20/04:30pm 25.2 26.2 20.2 74 3.3 E 15 20 8 11 1015.6 1015.6 0.0
20/04:00pm 25.2 25.9 19.6 71 3.6 E 15 22 8 12 1015.4 1015.4 0.0
20/03:30pm 25.5 25.8 19.6 70 3.8 E 17 26 9 14 1015.3 1015.3 0.0
20/03:00pm 25.6 25.5 19.5 69 3.9 E 19 26 10 14 1015.1 1015.1 0.0
20/02:30pm 25.9 26.1 20.2 71 3.7 E 19 26 10 14 1015.3 1015.3 0.0

Other Formats:

Comma delimited format used in spreadsheet applications
http://www.bom.gov.au/fwo/IDQ60801/IDQ60801.95296.axf

JavaScript Object Notation format (JSON) in row-major order
http://www.bom.gov.au/fwo/IDQ60801/IDQ60801.95296.json